createdAt,value
2022-09-14T00:00:18.716Z,88.13
2022-09-14T00:03:24.077Z,88.44
2022-09-14T00:06:13.118Z,88.38
2022-09-14T00:09:00.957Z,88.47
2022-09-14T00:11:48.127Z,88.28
2022-09-14T00:14:33.885Z,88.17
2022-09-14T00:17:19.649Z,88.21
2022-09-14T00:20:05.568Z,88.55
2022-09-14T00:22:51.499Z,88.28
2022-09-14T00:25:36.858Z,88.50
2022-09-14T00:28:22.796Z,88.29
2022-09-14T00:31:09.046Z,88.50
2022-09-14T00:33:54.707Z,88.83
2022-09-14T00:36:43.353Z,88.53
2022-09-14T00:39:29.137Z,88.79
2022-09-14T00:42:16.609Z,88.58
2022-09-14T00:45:16.022Z,88.93
2022-09-14T00:48:01.928Z,88.81
2022-09-14T00:50:47.714Z,88.79
2022-09-14T00:53:33.519Z,88.62
2022-09-14T00:56:19.582Z,88.47
2022-09-14T00:59:16.799Z,88.39
2022-09-14T01:02:03.262Z,88.65
2022-09-14T01:04:49.013Z,88.59
2022-09-14T01:07:50.682Z,88.72
2022-09-14T01:10:43.844Z,88.62
2022-09-14T01:13:44.888Z,88.83
2022-09-14T01:16:36.353Z,88.87
2022-09-14T01:19:42.974Z,88.77
2022-09-14T01:23:06.517Z,88.53
2022-09-14T01:26:29.432Z,88.69
2022-09-14T01:29:29.903Z,88.94
2022-09-14T01:32:21.382Z,88.69
2022-09-14T01:35:15.969Z,88.83
2022-09-14T01:38:14.390Z,88.88
2022-09-14T01:41:03.257Z,88.63
2022-09-14T01:43:56.487Z,88.55
2022-09-14T01:46:48.502Z,88.55
2022-09-14T01:49:43.965Z,88.36
2022-09-14T01:52:54.932Z,88.22
2022-09-14T01:56:03.746Z,88.46
2022-09-14T01:58:58.016Z,88.21
2022-09-14T02:01:52.911Z,88.11
2022-09-14T02:04:46.408Z,88.26
2022-09-14T02:07:33.069Z,87.96
2022-09-14T02:10:18.462Z,87.68
2022-09-14T02:13:04.299Z,87.58
2022-09-14T02:15:50.038Z,87.83
2022-09-14T02:18:35.766Z,87.45
2022-09-14T02:21:31.295Z,87.51
2022-09-14T02:24:17.354Z,87.58
2022-09-14T02:27:03.665Z,87.56
2022-09-14T02:29:49.786Z,87.31
2022-09-14T02:32:58.485Z,87.35
2022-09-14T02:35:54.503Z,87.36
2022-09-14T02:38:51.541Z,87.03
2022-09-14T02:42:15.464Z,87.22
2022-09-14T02:45:28.001Z,87.37
2022-09-14T02:48:21.833Z,87.14
2022-09-14T02:51:18.351Z,86.79
2022-09-14T02:54:19.162Z,86.81
2022-09-14T02:57:05.348Z,86.70
2022-09-14T02:59:54.223Z,86.74
2022-09-14T03:02:39.670Z,86.62
2022-09-14T03:05:25.685Z,86.29
2022-09-14T03:08:11.757Z,86.22
2022-09-14T03:10:57.635Z,86.21
2022-09-14T03:13:44.207Z,86.07
2022-09-14T03:16:29.935Z,86.11
2022-09-14T03:19:15.603Z,86.12
2022-09-14T03:22:02.192Z,86.39
2022-09-14T03:24:47.610Z,86.17
2022-09-14T03:27:33.382Z,86.32
2022-09-14T03:30:19.394Z,86.51
2022-09-14T03:33:05.476Z,86.34
2022-09-14T03:35:51.232Z,86.21
2022-09-14T03:38:36.847Z,86.22
2022-09-14T03:41:23.565Z,86.26
2022-09-14T03:44:10.393Z,86.20
2022-09-14T03:46:56.288Z,86.13
2022-09-14T03:49:42.364Z,85.97
2022-09-14T03:52:28.452Z,85.99
2022-09-14T03:55:14.605Z,85.82
2022-09-14T03:58:00.481Z,85.92
2022-09-14T04:00:46.468Z,85.84
2022-09-14T04:03:32.101Z,85.82
2022-09-14T04:06:19.210Z,85.83
2022-09-14T04:09:05.688Z,85.57
2022-09-14T04:11:51.713Z,85.75
2022-09-14T04:14:37.721Z,85.58
2022-09-14T04:17:25.341Z,85.39
2022-09-14T04:20:11.381Z,85.49
2022-09-14T04:22:57.198Z,85.27
2022-09-14T04:25:42.704Z,84.99
2022-09-14T04:28:29.127Z,84.96
2022-09-14T04:31:15.519Z,84.92
2022-09-14T04:34:01.479Z,84.69
2022-09-14T04:36:47.257Z,84.71
2022-09-14T04:39:32.959Z,84.56
2022-09-14T04:42:19.408Z,84.44
2022-09-14T04:45:06.156Z,84.48
2022-09-14T04:47:51.979Z,84.64
2022-09-14T04:50:37.646Z,83.88
2022-09-14T04:53:23.402Z,83.63
2022-09-14T04:56:11.095Z,83.91
2022-09-14T04:58:58.952Z,83.61
2022-09-14T05:01:47.518Z,83.35
2022-09-14T05:04:33.697Z,83.67
2022-09-14T05:07:19.657Z,83.55
2022-09-14T05:10:06.198Z,82.95
2022-09-14T05:12:51.913Z,83.32
2022-09-14T05:15:37.460Z,83.04
2022-09-14T05:18:23.137Z,83.27
2022-09-14T05:21:10.643Z,82.92
2022-09-14T05:24:01.582Z,82.67
2022-09-14T05:26:47.416Z,83.18
2022-09-14T05:29:33.469Z,82.88
2022-09-14T05:32:19.017Z,82.56
2022-09-14T05:35:05.439Z,82.79
2022-09-14T05:37:54.105Z,82.92
2022-09-14T05:40:40.348Z,82.51
2022-09-14T05:43:29.496Z,82.09
2022-09-14T05:46:37.487Z,82.28
2022-09-14T05:49:28.161Z,82.48
2022-09-14T05:52:17.320Z,82.22
2022-09-14T05:55:03.736Z,82.36
2022-09-14T05:57:50.445Z,82.34
2022-09-14T06:00:36.007Z,82.03
2022-09-14T06:03:22.021Z,81.26
2022-09-14T06:06:09.240Z,81.53
2022-09-14T06:08:56.773Z,81.35
2022-09-14T06:11:43.028Z,80.91
2022-09-14T06:14:33.708Z,80.68
2022-09-14T06:17:19.289Z,80.23
2022-09-14T06:20:07.757Z,80.13
2022-09-14T06:22:53.172Z,80.14
2022-09-14T06:25:39.111Z,79.95
2022-09-14T06:28:25.674Z,79.62
2022-09-14T06:31:14.076Z,79.25
2022-09-14T06:33:59.743Z,79.17
2022-09-14T06:36:45.657Z,79.66
2022-09-14T06:39:31.789Z,78.90
2022-09-14T06:42:18.180Z,79.01
2022-09-14T06:45:07.439Z,78.62
2022-09-14T06:47:53.121Z,78.24
2022-09-14T06:50:38.645Z,78.43
2022-09-14T06:53:25.158Z,78.17
2022-09-14T06:56:11.329Z,78.13
2022-09-14T06:58:58.502Z,78.02
2022-09-14T07:01:50.198Z,78.19
2022-09-14T07:04:36.984Z,77.65
2022-09-14T07:07:22.573Z,77.87
2022-09-14T07:10:08.707Z,77.72
2022-09-14T07:12:55.011Z,77.64
2022-09-14T07:15:40.522Z,77.55
2022-09-14T07:18:33.188Z,77.66
2022-09-14T07:21:21.287Z,77.44
2022-09-14T07:24:07.403Z,77.10
2022-09-14T07:26:53.420Z,77.00
2022-09-14T07:29:39.105Z,77.28
2022-09-14T07:32:41.543Z,76.59
2022-09-14T07:35:33.004Z,76.26
2022-09-14T07:38:58.308Z,76.07
2022-09-14T07:41:44.209Z,76.23
2022-09-14T07:44:30.149Z,75.89
2022-09-14T07:47:16.084Z,75.72
2022-09-14T07:50:01.970Z,75.54
2022-09-14T07:52:54.920Z,75.07
2022-09-14T07:55:41.318Z,74.95
2022-09-14T07:58:40.449Z,74.77
2022-09-14T08:01:30.236Z,75.18
2022-09-14T08:04:15.963Z,74.74
2022-09-14T08:07:04.409Z,74.36
2022-09-14T08:09:50.517Z,74.35
2022-09-14T08:12:36.956Z,74.16
2022-09-14T08:15:28.254Z,73.14
2022-09-14T08:18:15.056Z,73.21
2022-09-14T08:21:12.644Z,73.70
2022-09-14T08:23:59.235Z,73.63
2022-09-14T08:26:46.849Z,73.73
2022-09-14T08:29:33.057Z,73.47
2022-09-14T08:32:18.839Z,73.84
2022-09-14T08:35:04.905Z,73.68
2022-09-14T08:37:51.078Z,73.96
2022-09-14T08:40:44.775Z,73.78
2022-09-14T08:43:30.382Z,73.23
2022-09-14T08:46:34.532Z,73.57
2022-09-14T08:49:55.331Z,73.15
2022-09-14T08:52:56.193Z,73.12
2022-09-14T08:55:47.989Z,73.01
2022-09-14T08:58:48.570Z,72.83
2022-09-14T09:01:58.043Z,72.89
2022-09-14T09:05:07.696Z,72.02
2022-09-14T09:08:04.241Z,71.81
2022-09-14T09:10:52.995Z,71.67
2022-09-14T09:13:40.186Z,71.08
2022-09-14T09:16:27.745Z,71.50
2022-09-14T09:19:18.217Z,71.07
2022-09-14T09:22:05.940Z,70.19
2022-09-14T09:24:54.155Z,70.71
2022-09-14T09:27:40.141Z,70.43
2022-09-14T09:30:26.348Z,70.32
2022-09-14T09:33:23.338Z,70.43
2022-09-14T09:36:48.135Z,69.97
2022-09-14T09:39:35.068Z,69.50
2022-09-14T09:42:23.159Z,69.53
2022-09-14T09:45:10.216Z,69.35
2022-09-14T09:47:55.796Z,69.26
2022-09-14T09:50:56.722Z,69.09
2022-09-14T09:53:50.132Z,68.18
2022-09-14T09:56:55.921Z,68.54
2022-09-14T09:59:44.330Z,67.85
2022-09-14T10:02:31.355Z,67.60
2022-09-14T10:05:17.034Z,67.48
2022-09-14T10:08:09.342Z,67.44
2022-09-14T10:10:57.055Z,67.01
2022-09-14T10:13:47.079Z,66.99
2022-09-14T10:16:39.073Z,66.64
2022-09-14T10:19:28.078Z,66.55
2022-09-14T10:22:31.978Z,66.69
2022-09-14T10:25:17.903Z,66.23
2022-09-14T10:28:03.896Z,65.91
2022-09-14T10:30:56.217Z,65.99
2022-09-14T10:33:42.673Z,65.74
2022-09-14T10:36:34.257Z,65.88
2022-09-14T10:39:26.262Z,65.45
2022-09-14T10:42:25.797Z,65.19
2022-09-14T10:45:31.689Z,65.10
2022-09-14T10:48:23.876Z,65.63
2022-09-14T10:51:23.492Z,65.34
2022-09-14T10:54:22.649Z,64.52
2022-09-14T10:57:46.190Z,64.78
2022-09-14T11:00:38.300Z,64.62
2022-09-14T11:03:34.537Z,64.18
2022-09-14T11:06:24.791Z,64.68
2022-09-14T11:09:26.983Z,64.07
2022-09-14T11:12:26.943Z,64.13
2022-09-14T11:15:46.145Z,64.57
2022-09-14T11:19:11.102Z,64.74
2022-09-14T11:22:08.538Z,64.64
2022-09-14T11:25:12.384Z,64.87
2022-09-14T11:28:01.013Z,65.31
2022-09-14T11:31:00.790Z,65.35
2022-09-14T11:34:12.843Z,65.05
2022-09-14T11:37:04.889Z,65.15
2022-09-14T11:40:10.584Z,65.42
2022-09-14T11:43:01.007Z,65.98
2022-09-14T11:45:50.131Z,65.98
2022-09-14T11:48:57.414Z,66.02
2022-09-14T11:51:53.614Z,65.91
2022-09-14T11:54:44.614Z,65.58
2022-09-14T11:57:33.774Z,65.56
2022-09-14T12:00:30.508Z,65.69
2022-09-14T12:03:24.551Z,65.96
2022-09-14T12:06:28.651Z,65.59
2022-09-14T12:09:17.520Z,65.72
2022-09-14T12:12:07.528Z,65.55
2022-09-14T12:14:59.486Z,65.70
2022-09-14T12:17:45.872Z,65.61
2022-09-14T12:20:41.901Z,65.89
2022-09-14T12:23:51.814Z,65.80
2022-09-14T12:26:37.632Z,65.74
2022-09-14T12:29:33.083Z,65.53
2022-09-14T12:32:45.299Z,65.46
2022-09-14T12:35:34.280Z,66.02
2022-09-14T12:38:33.516Z,65.44
2022-09-14T12:41:20.635Z,65.57
2022-09-14T12:44:30.455Z,65.58
2022-09-14T12:47:25.597Z,65.86
2022-09-14T12:50:22.308Z,65.56
2022-09-14T12:53:25.747Z,65.63
2022-09-14T12:56:18.334Z,65.87
2022-09-14T12:59:46.662Z,65.80
2022-09-14T13:03:11.174Z,65.52
2022-09-14T13:06:03.312Z,65.57
2022-09-14T13:08:58.739Z,65.67
2022-09-14T13:11:46.872Z,65.55
2022-09-14T13:14:48.370Z,65.64
2022-09-14T13:17:33.896Z,66.25
2022-09-14T13:20:21.567Z,66.33
2022-09-14T13:23:21.405Z,66.22
2022-09-14T13:26:12.341Z,66.24
2022-09-14T13:29:00.266Z,66.42
2022-09-14T13:31:45.996Z,66.36
2022-09-14T13:34:45.616Z,66.85
2022-09-14T13:37:47.579Z,66.87
2022-09-14T13:40:46.662Z,66.66
2022-09-14T13:43:32.927Z,66.92
2022-09-14T13:46:46.074Z,66.85
2022-09-14T13:49:32.625Z,66.74
2022-09-14T13:52:21.888Z,67.09
2022-09-14T13:55:41.200Z,67.20
2022-09-14T13:58:27.577Z,67.10
2022-09-14T14:01:26.254Z,66.90
2022-09-14T14:04:36.062Z,66.76
2022-09-14T14:07:23.552Z,67.01
2022-09-14T14:10:28.656Z,67.12
2022-09-14T14:13:27.755Z,67.30
2022-09-14T14:16:17.450Z,67.26
2022-09-14T14:19:03.396Z,67.36
2022-09-14T14:21:56.981Z,67.01
2022-09-14T14:28:06.598Z,67.20
2022-09-14T14:30:53.388Z,67.28
2022-09-14T14:33:46.220Z,67.76
2022-09-14T14:36:32.503Z,67.79
2022-09-14T14:39:23.599Z,67.55
2022-09-14T14:42:10.739Z,67.74
2022-09-14T14:44:57.428Z,68.08
2022-09-14T14:47:47.183Z,68.02
2022-09-14T14:50:36.035Z,68.31
2022-09-14T14:53:24.382Z,67.81
2022-09-14T14:56:23.318Z,67.97
2022-09-14T14:59:21.403Z,68.16
2022-09-14T15:02:09.386Z,68.42
2022-09-14T15:04:59.487Z,68.23
2022-09-14T15:07:57.231Z,68.32
2022-09-14T15:10:43.021Z,68.35
2022-09-14T15:13:29.340Z,68.18
2022-09-14T15:16:16.010Z,68.21
2022-09-14T15:19:02.193Z,68.73
2022-09-14T15:21:47.964Z,68.55
2022-09-14T15:24:34.130Z,68.55
2022-09-14T15:27:19.974Z,68.55
2022-09-14T15:30:07.032Z,68.82
2022-09-14T15:33:17.319Z,68.85
2022-09-14T15:36:09.282Z,69.12
2022-09-14T15:38:56.406Z,68.94
2022-09-14T15:41:42.598Z,69.20
2022-09-14T15:44:31.407Z,69.18
2022-09-14T15:47:20.360Z,69.05
2022-09-14T15:50:06.507Z,69.51
2022-09-14T15:52:52.622Z,69.07
2022-09-14T15:55:40.817Z,68.95
2022-09-14T15:58:27.320Z,69.25
2022-09-14T16:01:14.680Z,69.17
2022-09-14T16:04:11.524Z,69.40
2022-09-14T16:10:23.173Z,69.81
2022-09-14T16:13:09.378Z,69.99
2022-09-14T16:16:04.335Z,69.88
2022-09-14T16:18:51.457Z,69.56
2022-09-14T16:21:38.406Z,70.03
2022-09-14T16:24:26.381Z,70.26
2022-09-14T16:27:12.846Z,70.34
2022-09-14T16:30:04.459Z,70.46
2022-09-14T16:33:17.074Z,70.38
2022-09-14T16:36:05.024Z,70.36
2022-09-14T16:38:50.802Z,70.62
2022-09-14T16:41:56.724Z,70.65
2022-09-14T16:44:42.552Z,70.88
2022-09-14T16:47:28.531Z,70.99
2022-09-14T16:50:15.409Z,70.85
2022-09-14T16:53:01.316Z,71.22
2022-09-14T16:55:47.516Z,70.83
2022-09-14T16:58:35.933Z,71.48
2022-09-14T17:01:26.101Z,71.40
2022-09-14T17:04:14.983Z,71.48
2022-09-14T17:07:00.753Z,71.78
2022-09-14T17:09:46.505Z,71.58
2022-09-14T17:12:32.874Z,71.52
2022-09-14T17:15:18.780Z,71.65
2022-09-14T17:18:05.721Z,71.70
2022-09-14T17:21:01.276Z,71.79
2022-09-14T17:23:48.111Z,71.81
2022-09-14T17:26:34.632Z,71.71
2022-09-14T17:29:20.755Z,71.99
2022-09-14T17:32:10.159Z,72.29
2022-09-14T17:34:58.658Z,72.41
2022-09-14T17:37:45.042Z,72.17
2022-09-14T17:40:31.194Z,72.35
2022-09-14T17:43:20.960Z,72.51
2022-09-14T17:46:07.899Z,72.25
2022-09-14T17:48:54.325Z,72.52
2022-09-14T17:51:40.605Z,72.25
2022-09-14T17:54:26.863Z,72.71
2022-09-14T17:57:12.490Z,72.62
2022-09-14T17:59:58.178Z,72.91
2022-09-14T18:02:44.272Z,73.01
2022-09-14T18:05:30.560Z,73.10
2022-09-14T18:08:16.486Z,73.14
2022-09-14T18:11:12.067Z,73.15
2022-09-14T18:13:58.171Z,73.31
2022-09-14T18:16:45.203Z,73.19
2022-09-14T18:19:30.887Z,73.17
2022-09-14T18:22:17.894Z,73.30
2022-09-14T18:25:05.084Z,73.35
2022-09-14T18:27:52.114Z,73.34
2022-09-14T18:30:42.940Z,73.66
2022-09-14T18:33:29.690Z,73.67
2022-09-14T18:36:16.320Z,73.76
2022-09-14T18:39:02.436Z,73.63
2022-09-14T18:41:53.839Z,73.59
2022-09-14T18:44:40.023Z,73.63
2022-09-14T18:47:25.925Z,73.62
2022-09-14T18:50:12.070Z,73.55
2022-09-14T18:52:58.520Z,73.80
2022-09-14T18:55:44.304Z,73.85
2022-09-14T18:58:34.270Z,73.77
2022-09-14T19:01:21.119Z,74.00
2022-09-14T19:04:09.785Z,73.81
2022-09-14T19:06:55.797Z,73.95
2022-09-14T19:09:42.028Z,74.31
2022-09-14T19:12:28.588Z,74.00
2022-09-14T19:15:14.055Z,74.27
2022-09-14T19:18:00.557Z,74.19
2022-09-14T19:21:06.028Z,74.26
2022-09-14T19:24:01.780Z,74.13
2022-09-14T19:26:49.763Z,74.30
2022-09-14T19:29:36.217Z,74.56
2022-09-14T19:32:22.212Z,74.43
2022-09-14T19:35:08.978Z,74.64
2022-09-14T19:37:54.984Z,74.58
2022-09-14T19:40:50.726Z,74.84
2022-09-14T19:43:38.783Z,74.75
2022-09-14T19:46:26.037Z,74.58
2022-09-14T19:49:15.518Z,74.86
2022-09-14T19:52:01.806Z,74.53
2022-09-14T19:54:47.860Z,74.87
2022-09-14T19:57:36.688Z,74.66
2022-09-14T20:00:22.691Z,74.78
2022-09-14T20:03:08.561Z,74.63
2022-09-14T20:06:01.431Z,74.96
2022-09-14T20:08:48.731Z,74.88
2022-09-14T20:11:35.910Z,74.92
2022-09-14T20:14:24.540Z,74.82
2022-09-14T20:17:10.551Z,75.09
2022-09-14T20:19:56.556Z,74.85
2022-09-14T20:22:42.236Z,75.15
2022-09-14T20:25:28.152Z,74.77
2022-09-14T20:28:16.080Z,75.19
2022-09-14T20:31:15.071Z,75.01
2022-09-14T20:34:02.046Z,75.00
2022-09-14T20:36:49.293Z,74.89
2022-09-14T20:39:38.694Z,75.01
2022-09-14T20:42:26.092Z,74.92
2022-09-14T20:45:11.924Z,74.89
2022-09-14T20:47:58.304Z,74.86
2022-09-14T20:50:51.978Z,74.82
2022-09-14T20:53:43.446Z,74.84
2022-09-14T20:56:35.377Z,74.73
2022-09-14T20:59:22.819Z,75.03
2022-09-14T21:02:09.565Z,74.71
2022-09-14T21:04:55.774Z,75.00
2022-09-14T21:07:41.664Z,74.68
2022-09-14T21:10:29.487Z,74.82
2022-09-14T21:13:15.470Z,74.63
2022-09-14T21:16:15.399Z,74.68
2022-09-14T21:19:03.904Z,74.82
2022-09-14T21:21:50.801Z,74.60
2022-09-14T21:24:36.603Z,74.86
2022-09-14T21:27:22.373Z,74.76
2022-09-14T21:30:08.655Z,74.62
2022-09-14T21:32:55.131Z,74.65
2022-09-14T21:35:41.041Z,74.72
2022-09-14T21:38:27.123Z,74.79
2022-09-14T21:41:12.524Z,74.63
2022-09-14T21:43:58.977Z,74.80
2022-09-14T21:46:44.640Z,74.81
2022-09-14T21:49:31.307Z,74.88
2022-09-14T21:52:16.935Z,74.73
2022-09-14T21:55:02.643Z,74.91
2022-09-14T21:57:50.409Z,74.66
2022-09-14T22:00:36.272Z,74.84
2022-09-14T22:03:22.084Z,74.75
2022-09-14T22:06:12.681Z,74.82
2022-09-14T22:09:01.971Z,74.98
2022-09-14T22:11:47.894Z,74.63
2022-09-14T22:14:34.093Z,74.77
2022-09-14T22:17:20.191Z,74.65
2022-09-14T22:20:06.338Z,74.85
2022-09-14T22:22:52.188Z,74.78
2022-09-14T22:25:41.388Z,74.68
2022-09-14T22:28:27.138Z,74.97
2022-09-14T22:31:12.651Z,74.79
2022-09-14T22:33:59.629Z,74.73
2022-09-14T22:36:54.481Z,74.99
2022-09-14T22:39:53.916Z,74.87
2022-09-14T22:42:39.756Z,75.12
2022-09-14T22:45:25.806Z,74.77
2022-09-14T22:48:11.580Z,74.65
2022-09-14T22:50:58.301Z,75.07
2022-09-14T22:53:44.930Z,74.96
2022-09-14T22:56:37.122Z,74.62
2022-09-14T22:59:22.477Z,74.90
2022-09-14T23:02:09.062Z,74.77
2022-09-14T23:04:56.189Z,74.92
2022-09-14T23:07:42.186Z,74.74
2022-09-14T23:10:28.189Z,75.26
2022-09-14T23:13:15.533Z,74.65
2022-09-14T23:16:01.991Z,74.84
2022-09-14T23:18:53.224Z,74.90
2022-09-14T23:21:39.127Z,75.04
2022-09-14T23:24:24.854Z,74.79
2022-09-14T23:27:10.257Z,74.99
2022-09-14T23:29:56.216Z,75.02
2022-09-14T23:32:41.878Z,75.09
2022-09-14T23:35:28.564Z,74.96
2022-09-14T23:38:14.426Z,74.83
2022-09-14T23:41:00.446Z,75.14
2022-09-14T23:43:46.432Z,75.14
2022-09-14T23:46:32.777Z,75.03
2022-09-14T23:49:18.573Z,75.19
2022-09-14T23:52:04.247Z,74.95
2022-09-14T23:54:50.675Z,75.08
2022-09-14T23:57:36.767Z,75.03
